createdAt,value
2017-04-07T00:00:33.338Z,948.8
2017-04-07T00:01:41.579Z,948.8
2017-04-07T00:02:49.547Z,948.7
2017-04-07T00:03:57.930Z,948.7
2017-04-07T00:05:07.103Z,948.8
2017-04-07T00:06:14.228Z,948.8
2017-04-07T00:07:21.677Z,948.9
2017-04-07T00:08:30.273Z,949.0
2017-04-07T00:09:38.477Z,949.0
2017-04-07T00:10:45.944Z,948.9
2017-04-07T00:11:54.037Z,948.9
2017-04-07T00:13:02.472Z,949.0
2017-04-07T00:14:12.169Z,949.0
2017-04-07T00:15:18.633Z,949.0
2017-04-07T00:16:26.593Z,948.9
2017-04-07T00:17:34.467Z,948.8
2017-04-07T00:18:42.732Z,948.7
2017-04-07T00:19:52.561Z,948.8
2017-04-07T00:20:58.787Z,948.8
2017-04-07T00:22:06.923Z,948.8
2017-04-07T00:23:14.899Z,948.9
2017-04-07T00:24:22.989Z,948.9
2017-04-07T00:25:31.276Z,948.9
2017-04-07T00:26:39.787Z,948.9
2017-04-07T00:27:47.527Z,948.9
2017-04-07T00:28:55.974Z,948.9
2017-04-07T00:30:03.518Z,949.0
2017-04-07T00:31:11.561Z,949.1
2017-04-07T00:32:19.931Z,949.1
2017-04-07T00:33:27.859Z,949.1
2017-04-07T00:34:35.763Z,949.0
2017-04-07T00:35:43.852Z,949.0
2017-04-07T00:36:52.240Z,948.9
2017-04-07T00:38:00.334Z,948.9
2017-04-07T00:39:08.266Z,948.8
2017-04-07T00:40:16.352Z,948.8
2017-04-07T00:41:24.560Z,948.8
2017-04-07T00:42:32.432Z,948.7
2017-04-07T00:43:40.465Z,948.7
2017-04-07T00:44:48.551Z,948.6
2017-04-07T00:45:56.640Z,948.7
2017-04-07T00:47:04.726Z,948.7
2017-04-07T00:48:12.872Z,948.7
2017-04-07T00:49:20.903Z,948.6
2017-04-07T00:50:28.987Z,948.6
2017-04-07T00:51:37.140Z,948.6
2017-04-07T00:52:45.281Z,948.6
2017-04-07T00:53:53.750Z,948.6
2017-04-07T00:55:01.328Z,948.6
2017-04-07T00:56:09.420Z,948.6
2017-04-07T00:57:17.501Z,948.5
2017-04-07T00:58:25.587Z,948.5
2017-04-07T00:59:33.740Z,948.6
2017-04-07T01:00:41.764Z,948.5
2017-04-07T01:01:49.893Z,948.6
2017-04-07T01:02:57.948Z,948.6
2017-04-07T01:04:06.027Z,948.6
2017-04-07T01:05:14.618Z,948.6
2017-04-07T01:06:22.197Z,948.6
2017-04-07T01:07:30.483Z,948.7
2017-04-07T01:08:38.430Z,948.6
2017-04-07T01:09:46.457Z,948.6
2017-04-07T01:10:54.610Z,948.6
2017-04-07T01:12:02.638Z,948.7
2017-04-07T01:13:10.814Z,948.6
2017-04-07T01:14:18.800Z,948.6
2017-04-07T01:15:26.888Z,948.6
2017-04-07T01:16:35.100Z,948.6
2017-04-07T01:17:43.250Z,948.6
2017-04-07T01:18:51.151Z,948.6
2017-04-07T01:19:59.239Z,948.6
2017-04-07T01:21:07.323Z,948.6
2017-04-07T01:22:15.463Z,948.5
2017-04-07T01:23:23.497Z,948.5
2017-04-07T01:24:32.090Z,948.5
2017-04-07T01:25:39.675Z,948.5
2017-04-07T01:26:47.761Z,948.6
2017-04-07T01:27:56.010Z,948.5
2017-04-07T01:29:04.122Z,948.5
2017-04-07T01:30:12.019Z,948.5
2017-04-07T01:31:20.111Z,948.5
2017-04-07T01:32:28.197Z,948.5
2017-04-07T01:33:36.400Z,948.5
2017-04-07T01:34:44.396Z,948.5
2017-04-07T01:35:52.455Z,948.5
2017-04-07T01:37:00.541Z,948.5
2017-04-07T01:38:08.626Z,948.5
2017-04-07T01:39:16.772Z,948.5
2017-04-07T01:40:25.308Z,948.4
2017-04-07T01:41:32.885Z,948.4
2017-04-07T01:42:40.975Z,948.4
2017-04-07T01:43:49.070Z,948.3
2017-04-07T01:44:57.199Z,948.4
2017-04-07T01:46:05.322Z,948.4
2017-04-07T01:47:13.318Z,948.4
2017-04-07T01:48:21.402Z,948.4
2017-04-07T01:49:29.487Z,948.4
2017-04-07T01:50:37.701Z,948.4
2017-04-07T01:51:45.670Z,948.4
2017-04-07T01:52:53.754Z,948.3
2017-04-07T01:54:01.839Z,948.3
2017-04-07T01:55:09.927Z,948.3
2017-04-07T01:56:18.152Z,948.3
2017-04-07T01:57:26.101Z,948.3
2017-04-07T01:58:34.193Z,948.4
2017-04-07T01:59:42.275Z,948.3
2017-04-07T02:00:50.369Z,948.3
2017-04-07T02:01:58.591Z,948.3
2017-04-07T02:03:06.541Z,948.3
2017-04-07T02:04:14.626Z,948.3
2017-04-07T02:05:22.709Z,948.3
2017-04-07T02:06:30.800Z,948.3
2017-04-07T02:07:39.009Z,948.3
2017-04-07T02:08:46.964Z,948.3
2017-04-07T02:09:55.067Z,948.3
2017-04-07T02:11:03.153Z,948.3
2017-04-07T02:12:11.891Z,948.3
2017-04-07T02:13:19.368Z,948.2
2017-04-07T02:14:27.401Z,948.2
2017-04-07T02:15:35.487Z,948.1
2017-04-07T02:16:43.571Z,948.1
2017-04-07T02:17:51.657Z,948.1
2017-04-07T02:18:59.800Z,948.1
2017-04-07T02:20:07.825Z,948.2
2017-04-07T02:21:15.918Z,948.2
2017-04-07T02:22:24.137Z,948.2
2017-04-07T02:23:32.221Z,948.2
2017-04-07T02:24:40.299Z,948.2
2017-04-07T02:25:48.273Z,948.1
2017-04-07T02:26:56.361Z,948.1
2017-04-07T02:28:04.951Z,948.1
2017-04-07T02:29:12.530Z,948.1
2017-04-07T02:30:20.736Z,948.1
2017-04-07T02:31:28.704Z,948.1
2017-04-07T02:32:36.792Z,948.1
2017-04-07T02:33:45.021Z,948.1
2017-04-07T02:34:52.965Z,948.1
2017-04-07T02:36:01.100Z,948.1
2017-04-07T02:37:09.131Z,948.1
2017-04-07T02:38:17.223Z,948.1
2017-04-07T02:39:25.311Z,948.1
2017-04-07T02:40:33.391Z,948.1
2017-04-07T02:41:41.599Z,948.1
2017-04-07T02:42:49.565Z,948.1
2017-04-07T02:43:57.820Z,948.1
2017-04-07T02:45:05.829Z,948.1
2017-04-07T02:46:13.818Z,948.1
2017-04-07T02:47:22.409Z,948.1
2017-04-07T02:48:29.984Z,948.1
2017-04-07T02:49:38.076Z,948.1
2017-04-07T02:50:46.169Z,948.1
2017-04-07T02:51:54.257Z,948.1
2017-04-07T02:53:02.457Z,948.1
2017-04-07T02:54:10.424Z,948.1
2017-04-07T02:55:18.510Z,948.1
2017-04-07T02:56:26.598Z,948.1
2017-04-07T02:57:34.687Z,948.1
2017-04-07T02:58:42.827Z,948.1
2017-04-07T02:59:51.367Z,948.0
2017-04-07T03:00:58.942Z,948.0
2017-04-07T03:02:07.037Z,948.0
2017-04-07T03:03:15.125Z,948.0
2017-04-07T03:04:23.317Z,948.0
2017-04-07T03:05:31.319Z,948.1
2017-04-07T03:06:39.436Z,948.1
2017-04-07T03:07:47.451Z,948.0
2017-04-07T03:08:55.533Z,948.1
2017-04-07T03:10:03.680Z,948.0
2017-04-07T03:11:11.909Z,948.1
2017-04-07T03:12:19.792Z,948.0
2017-04-07T03:13:27.880Z,948.0
2017-04-07T03:14:35.968Z,948.0
2017-04-07T03:15:44.555Z,948.0
2017-04-07T03:16:52.136Z,948.0
2017-04-07T03:18:00.220Z,948.0
2017-04-07T03:19:08.306Z,948.0
2017-04-07T03:20:16.386Z,948.1
2017-04-07T03:21:24.643Z,948.1
2017-04-07T03:22:32.560Z,948.1
2017-04-07T03:23:40.642Z,948.1
2017-04-07T03:24:48.730Z,948.1
2017-04-07T03:25:56.813Z,948.1
2017-04-07T03:27:04.954Z,948.1
2017-04-07T03:28:12.979Z,948.0
2017-04-07T03:29:21.071Z,948.1
2017-04-07T03:30:29.157Z,948.0
2017-04-07T03:31:37.740Z,948.0
2017-04-07T03:32:45.445Z,948.0
2017-04-07T03:33:53.409Z,948.0
2017-04-07T03:35:01.499Z,948.0
2017-04-07T03:36:09.580Z,948.0
2017-04-07T03:37:17.678Z,948.0
2017-04-07T03:38:25.909Z,948.0
2017-04-07T03:39:33.841Z,947.9
2017-04-07T03:40:41.920Z,947.9
2017-04-07T03:41:50.009Z,947.9
2017-04-07T03:42:58.091Z,947.9
2017-04-07T03:44:06.228Z,947.9
2017-04-07T03:45:14.263Z,947.9
2017-04-07T03:46:22.351Z,947.9
2017-04-07T03:47:30.939Z,947.9
2017-04-07T03:48:38.518Z,947.9
2017-04-07T03:49:46.769Z,947.9
2017-04-07T03:50:54.690Z,947.9
2017-04-07T03:52:02.774Z,947.9
2017-04-07T03:53:10.859Z,947.9
2017-04-07T03:54:18.946Z,947.8
2017-04-07T03:55:27.148Z,947.9
2017-04-07T03:56:35.115Z,947.8
2017-04-07T03:57:43.205Z,947.8
2017-04-07T03:58:51.284Z,947.8
2017-04-07T03:59:59.509Z,947.8
2017-04-07T04:01:07.530Z,947.8
2017-04-07T04:02:15.541Z,947.8
2017-04-07T04:03:24.132Z,947.8
2017-04-07T04:04:31.710Z,947.8
2017-04-07T04:05:39.797Z,947.8
2017-04-07T04:06:48.005Z,947.7
2017-04-07T04:07:55.970Z,947.7
2017-04-07T04:09:04.057Z,947.7
2017-04-07T04:10:12.159Z,947.7
2017-04-07T04:11:20.320Z,947.7
2017-04-07T04:12:28.366Z,947.7
2017-04-07T04:13:36.395Z,947.7
2017-04-07T04:14:44.481Z,947.6
2017-04-07T04:15:52.564Z,947.7
2017-04-07T04:17:00.655Z,947.7
2017-04-07T04:18:09.242Z,947.6
2017-04-07T04:19:16.939Z,947.6
2017-04-07T04:20:24.907Z,947.6
2017-04-07T04:21:33.046Z,947.6
2017-04-07T04:22:41.109Z,947.6
2017-04-07T04:23:49.216Z,947.6
2017-04-07T04:24:57.241Z,947.6
2017-04-07T04:26:05.324Z,947.6
2017-04-07T04:27:13.484Z,947.6
2017-04-07T04:28:21.493Z,947.6
2017-04-07T04:29:29.640Z,947.7
2017-04-07T04:30:37.660Z,947.6
2017-04-07T04:31:45.751Z,947.7
2017-04-07T04:32:53.835Z,947.6
2017-04-07T04:34:01.920Z,947.6
2017-04-07T04:35:10.126Z,947.6
2017-04-07T04:36:18.085Z,947.7
2017-04-07T04:37:26.304Z,947.7
2017-04-07T04:38:34.255Z,947.7
2017-04-07T04:39:42.342Z,947.7
2017-04-07T04:40:50.931Z,947.7
2017-04-07T04:41:58.510Z,947.7
2017-04-07T04:43:06.597Z,947.7
2017-04-07T04:44:14.685Z,947.7
2017-04-07T04:45:22.769Z,947.7
2017-04-07T04:46:30.905Z,947.7
2017-04-07T04:47:39.010Z,947.7
2017-04-07T04:48:47.199Z,947.7
2017-04-07T04:49:55.106Z,947.8
2017-04-07T04:51:03.319Z,947.7
2017-04-07T04:52:11.780Z,947.8
2017-04-07T04:53:19.365Z,947.8
2017-04-07T04:54:27.439Z,947.7
2017-04-07T04:55:35.531Z,947.8
2017-04-07T04:56:43.956Z,947.8
2017-04-07T04:57:51.755Z,947.8
2017-04-07T04:58:59.779Z,947.8
2017-04-07T05:00:07.866Z,947.8
2017-04-07T05:01:15.949Z,947.7
2017-04-07T05:02:24.034Z,947.8
2017-04-07T05:03:32.241Z,947.8
2017-04-07T05:04:40.220Z,947.8
2017-04-07T05:05:48.388Z,947.8
2017-04-07T05:06:56.876Z,947.8
2017-04-07T05:08:04.458Z,947.9
2017-04-07T05:09:12.598Z,947.8
2017-04-07T05:10:20.628Z,947.8
2017-04-07T05:11:28.714Z,947.8
2017-04-07T05:12:36.804Z,947.9
2017-04-07T05:13:44.886Z,947.9
2017-04-07T05:14:53.124Z,947.9
2017-04-07T05:16:01.150Z,947.9
2017-04-07T05:17:09.143Z,947.9
2017-04-07T05:18:17.228Z,947.9
2017-04-07T05:19:25.316Z,947.9
2017-04-07T05:20:33.455Z,947.9
2017-04-07T05:21:41.497Z,947.9
2017-04-07T05:22:50.075Z,947.9
2017-04-07T05:23:57.653Z,947.9
2017-04-07T05:25:05.738Z,947.9
2017-04-07T05:26:13.877Z,947.9
2017-04-07T05:27:21.963Z,947.9
2017-04-07T05:28:29.989Z,947.9
2017-04-07T05:29:38.073Z,947.9
2017-04-07T05:30:46.159Z,947.9
2017-04-07T05:31:54.309Z,947.9
2017-04-07T05:33:02.325Z,948.0
2017-04-07T05:34:10.415Z,947.9
2017-04-07T05:35:18.500Z,947.9
2017-04-07T05:36:26.587Z,947.9
2017-04-07T05:37:34.931Z,947.9
2017-04-07T05:38:43.271Z,947.9
2017-04-07T05:39:50.845Z,948.0
2017-04-07T05:40:58.932Z,948.0
2017-04-07T05:42:07.160Z,948.0
2017-04-07T05:43:15.359Z,947.9
2017-04-07T05:44:23.185Z,948.0
2017-04-07T05:45:31.272Z,948.0
2017-04-07T05:46:39.357Z,948.0
2017-04-07T05:47:47.439Z,947.9
2017-04-07T05:48:55.578Z,947.9
2017-04-07T05:50:03.973Z,948.0
2017-04-07T05:51:11.695Z,948.0
2017-04-07T05:52:19.781Z,948.0
2017-04-07T05:53:27.954Z,948.0
2017-04-07T05:54:36.454Z,948.0
2017-04-07T05:55:44.033Z,948.0
2017-04-07T05:56:52.112Z,948.0
2017-04-07T05:58:00.198Z,948.0
2017-04-07T05:59:08.288Z,948.0
2017-04-07T06:00:16.493Z,948.0
2017-04-07T06:01:24.451Z,948.0
2017-04-07T06:02:32.564Z,948.0
2017-04-07T06:03:40.713Z,948.0
2017-04-07T06:04:48.801Z,948.0
2017-04-07T06:05:56.845Z,948.0
2017-04-07T06:07:04.877Z,948.0
2017-04-07T06:08:12.954Z,948.0
2017-04-07T06:09:21.042Z,948.0
2017-04-07T06:10:29.185Z,948.0
2017-04-07T06:11:37.270Z,948.1
2017-04-07T06:12:45.297Z,948.0
2017-04-07T06:13:54.076Z,948.0
2017-04-07T06:15:01.548Z,948.0
2017-04-07T06:16:09.548Z,948.0
2017-04-07T06:17:18.479Z,948.0
2017-04-07T06:18:25.986Z,948.0
2017-04-07T06:19:34.126Z,948.0
2017-04-07T06:20:42.033Z,948.0
2017-04-07T06:21:50.073Z,947.9
2017-04-07T06:22:58.567Z,948.0
2017-04-07T06:24:06.146Z,948.0
2017-04-07T06:25:14.226Z,948.0
2017-04-07T06:26:22.435Z,948.0
2017-04-07T06:27:30.396Z,947.9
2017-04-07T06:28:38.535Z,948.0
2017-04-07T06:29:46.567Z,948.0
2017-04-07T06:30:54.650Z,948.0
2017-04-07T06:32:02.829Z,948.0
2017-04-07T06:33:10.814Z,948.0
2017-04-07T06:34:19.404Z,948.0
2017-04-07T06:35:27.048Z,948.0
2017-04-07T06:36:35.067Z,948.0
2017-04-07T06:37:43.154Z,948.0
2017-04-07T06:38:51.237Z,948.0
2017-04-07T06:40:00.148Z,948.1
2017-04-07T06:41:07.403Z,948.1
2017-04-07T06:42:17.439Z,948.0
2017-04-07T06:43:23.685Z,948.0
2017-04-07T06:44:31.734Z,948.1
2017-04-07T06:45:40.244Z,948.0
2017-04-07T06:46:47.935Z,948.0
2017-04-07T06:47:55.905Z,948.0
2017-04-07T06:49:03.988Z,948.0
2017-04-07T06:50:12.071Z,948.0
2017-04-07T06:51:21.794Z,948.0
2017-04-07T06:52:28.866Z,948.0
2017-04-07T06:53:37.052Z,948.0
2017-04-07T06:54:44.407Z,948.0
2017-04-07T06:55:52.837Z,947.9
2017-04-07T06:57:02.479Z,947.9
2017-04-07T06:58:10.713Z,947.9
2017-04-07T06:59:16.745Z,947.9
2017-04-07T07:00:24.824Z,947.9
2017-04-07T07:01:32.911Z,947.9
2017-04-07T07:02:41.055Z,947.9
2017-04-07T07:03:49.083Z,947.9
2017-04-07T07:04:57.233Z,947.9
2017-04-07T07:06:05.783Z,947.9
2017-04-07T07:07:13.337Z,947.9
2017-04-07T07:08:21.925Z,947.9
2017-04-07T07:09:29.692Z,947.9
2017-04-07T07:10:37.751Z,947.9
2017-04-07T07:11:45.671Z,947.9
2017-04-07T07:12:55.137Z,947.9
2017-04-07T07:14:01.982Z,948.0
2017-04-07T07:15:09.942Z,947.9
2017-04-07T07:16:18.021Z,948.0
2017-04-07T07:17:26.113Z,948.0
2017-04-07T07:18:34.198Z,947.9
2017-04-07T07:19:43.171Z,947.9
2017-04-07T07:20:50.437Z,948.0
2017-04-07T07:21:58.453Z,947.9
2017-04-07T07:23:06.529Z,947.9
2017-04-07T07:24:14.610Z,947.9
2017-04-07T07:25:22.755Z,947.9
2017-04-07T07:26:30.829Z,948.0
2017-04-07T07:27:38.867Z,947.9
2017-04-07T07:28:46.950Z,947.9
2017-04-07T07:29:55.539Z,948.0
2017-04-07T07:31:03.358Z,947.9
2017-04-07T07:32:11.211Z,947.9
2017-04-07T07:33:19.300Z,947.9
2017-04-07T07:34:27.383Z,947.9
2017-04-07T07:35:35.461Z,948.0
2017-04-07T07:36:43.606Z,947.9
2017-04-07T07:37:51.719Z,948.0
2017-04-07T07:38:59.716Z,948.0
2017-04-07T07:40:07.793Z,948.0
2017-04-07T07:41:15.880Z,948.0
2017-04-07T07:42:24.469Z,948.0
2017-04-07T07:43:32.044Z,948.0
2017-04-07T07:44:40.132Z,948.0
2017-04-07T07:45:48.276Z,948.0
2017-04-07T07:46:56.320Z,948.0
2017-04-07T07:48:04.585Z,948.0
2017-04-07T07:49:12.465Z,948.0
2017-04-07T07:50:21.207Z,948.0
2017-04-07T07:51:28.633Z,948.0
2017-04-07T07:52:36.716Z,948.1
2017-04-07T07:53:44.852Z,948.0
2017-04-07T07:54:52.890Z,948.1
2017-04-07T07:56:00.964Z,948.1
2017-04-07T07:57:09.052Z,948.1
2017-04-07T07:58:17.228Z,948.0
2017-04-07T07:59:25.337Z,948.0
2017-04-07T08:00:33.302Z,948.1
2017-04-07T08:01:42.897Z,948.1
2017-04-07T08:02:50.161Z,948.1
2017-04-07T08:03:57.577Z,948.0
2017-04-07T08:05:05.829Z,948.0
2017-04-07T08:06:13.957Z,948.0
2017-04-07T08:07:22.471Z,948.0
2017-04-07T08:08:30.105Z,948.1
2017-04-07T08:09:38.276Z,948.1
2017-04-07T08:10:46.661Z,948.1
2017-04-07T08:11:54.462Z,948.1
2017-04-07T08:13:02.833Z,948.1
2017-04-07T08:14:10.530Z,948.0
2017-04-07T08:15:18.442Z,948.0
2017-04-07T08:16:27.266Z,948.0
2017-04-07T08:17:34.941Z,948.0
2017-04-07T08:18:42.636Z,948.0
2017-04-07T08:19:50.838Z,948.0
2017-04-07T08:20:59.372Z,948.0
2017-04-07T08:22:07.397Z,948.0
2017-04-07T08:23:15.546Z,948.0
2017-04-07T08:24:23.269Z,948.0
2017-04-07T08:25:31.242Z,948.0
2017-04-07T08:26:39.382Z,948.0
2017-04-07T08:27:47.435Z,948.0
2017-04-07T08:28:55.398Z,948.0
2017-04-07T08:30:03.486Z,948.0
2017-04-07T08:31:11.570Z,948.1
2017-04-07T08:32:19.656Z,948.1
2017-04-07T08:33:28.467Z,948.1
2017-04-07T08:34:36.062Z,948.1
2017-04-07T08:35:44.478Z,948.1
2017-04-07T08:36:52.092Z,948.1
2017-04-07T08:38:00.511Z,948.1
2017-04-07T08:39:10.162Z,948.1
2017-04-07T08:40:16.307Z,948.2
2017-04-07T08:41:24.396Z,948.2
2017-04-07T08:42:32.419Z,948.1
2017-04-07T08:43:40.509Z,948.1
2017-04-07T08:44:49.101Z,948.2
2017-04-07T08:45:56.671Z,948.2
2017-04-07T08:47:04.857Z,948.2
2017-04-07T08:48:12.851Z,948.2
2017-04-07T08:49:20.993Z,948.1
2017-04-07T08:50:29.153Z,948.1
2017-04-07T08:51:37.111Z,948.1
2017-04-07T08:52:45.351Z,948.1
2017-04-07T08:53:53.854Z,948.1
2017-04-07T08:55:01.364Z,948.1
2017-04-07T08:56:09.957Z,948.1
2017-04-07T08:57:17.531Z,948.1
2017-04-07T08:58:25.768Z,948.2
2017-04-07T08:59:33.705Z,948.1
2017-04-07T09:00:41.796Z,948.1
2017-04-07T09:01:49.995Z,948.2
2017-04-07T09:02:58.350Z,948.2
2017-04-07T09:04:06.299Z,948.1
2017-04-07T09:05:15.835Z,948.1
2017-04-07T09:06:22.420Z,948.1
2017-04-07T09:07:30.350Z,948.1
2017-04-07T09:08:38.409Z,948.1
2017-04-07T09:09:46.834Z,948.1
2017-04-07T09:10:54.734Z,948.0
2017-04-07T09:12:03.194Z,948.1
2017-04-07T09:13:10.789Z,948.1
2017-04-07T09:14:19.105Z,948.0
2017-04-07T09:15:27.190Z,948.0
2017-04-07T09:16:35.381Z,948.0
2017-04-07T09:17:43.284Z,948.0
2017-04-07T09:18:51.351Z,948.0
2017-04-07T09:19:59.425Z,948.0
2017-04-07T09:21:07.703Z,948.0
2017-04-07T09:22:15.417Z,948.0
2017-04-07T09:23:23.900Z,948.0
2017-04-07T09:24:31.712Z,948.0
2017-04-07T09:25:39.688Z,948.0
2017-04-07T09:26:47.760Z,948.0
2017-04-07T09:27:56.444Z,948.0
2017-04-07T09:29:03.929Z,948.0
2017-04-07T09:30:12.190Z,948.0
2017-04-07T09:31:20.593Z,948.0
2017-04-07T09:32:28.179Z,947.9
2017-04-07T09:33:36.261Z,948.0
2017-04-07T09:34:44.348Z,948.0
2017-04-07T09:35:52.970Z,947.9
2017-04-07T09:37:00.633Z,947.9
2017-04-07T09:38:08.598Z,947.9
2017-04-07T09:39:16.689Z,947.9
2017-04-07T09:40:24.827Z,947.9
2017-04-07T09:41:32.949Z,947.9
2017-04-07T09:42:40.941Z,947.9
2017-04-07T09:43:49.027Z,947.9
2017-04-07T09:44:57.266Z,947.9
2017-04-07T09:46:05.383Z,947.9
2017-04-07T09:47:13.785Z,947.9
2017-04-07T09:48:21.367Z,947.9
2017-04-07T09:49:29.450Z,947.9
2017-04-07T09:50:37.535Z,947.9
2017-04-07T09:51:45.622Z,947.9
2017-04-07T09:52:53.760Z,947.9
2017-04-07T09:54:01.786Z,947.9
2017-04-07T09:55:09.878Z,947.9
2017-04-07T09:56:18.012Z,947.9
2017-04-07T09:57:26.038Z,947.8
2017-04-07T09:58:34.629Z,947.8
2017-04-07T09:59:42.212Z,947.8
2017-04-07T10:00:50.297Z,947.8
2017-04-07T10:01:58.377Z,947.7
2017-04-07T10:03:06.464Z,947.7
2017-04-07T10:04:14.603Z,947.7
2017-04-07T10:05:22.630Z,947.7
2017-04-07T10:06:30.721Z,947.7
2017-04-07T10:07:38.801Z,947.7
2017-04-07T10:08:47.520Z,947.7
2017-04-07T10:09:55.027Z,947.7
2017-04-07T10:11:03.083Z,947.7
2017-04-07T10:12:11.152Z,947.7
2017-04-07T10:13:19.353Z,947.7
2017-04-07T10:14:27.318Z,947.7
2017-04-07T10:15:35.463Z,947.6
2017-04-07T10:16:43.489Z,947.7
2017-04-07T10:17:51.573Z,947.7
2017-04-07T10:18:59.660Z,947.7
2017-04-07T10:20:07.743Z,947.6
2017-04-07T10:21:16.331Z,947.6
2017-04-07T10:22:23.917Z,947.6
2017-04-07T10:23:32.004Z,947.6
2017-04-07T10:24:40.218Z,947.6
2017-04-07T10:25:48.173Z,947.6
2017-04-07T10:26:56.320Z,947.5
2017-04-07T10:28:04.340Z,947.5
2017-04-07T10:29:12.425Z,947.5
2017-04-07T10:30:20.511Z,947.5
2017-04-07T10:31:28.601Z,947.6
2017-04-07T10:32:37.187Z,947.5
2017-04-07T10:33:44.767Z,947.6
2017-04-07T10:34:52.884Z,947.5
2017-04-07T10:36:00.938Z,947.5
2017-04-07T10:37:09.022Z,947.5
2017-04-07T10:38:17.173Z,947.5
2017-04-07T10:39:25.190Z,947.5
2017-04-07T10:40:33.948Z,947.5
2017-04-07T10:41:41.358Z,947.5
2017-04-07T10:42:49.444Z,947.5
2017-04-07T10:43:57.580Z,947.5
2017-04-07T10:45:05.609Z,947.5
2017-04-07T10:46:13.696Z,947.5
2017-04-07T10:47:21.783Z,947.4
2017-04-07T10:48:29.862Z,947.5
2017-04-07T10:49:38.203Z,947.4
2017-04-07T10:50:46.127Z,947.4
2017-04-07T10:51:54.123Z,947.4
2017-04-07T10:53:02.204Z,947.4
2017-04-07T10:54:10.304Z,947.3
2017-04-07T10:55:18.537Z,947.4
2017-04-07T10:56:26.984Z,947.4
2017-04-07T10:57:34.565Z,947.4
2017-04-07T10:58:42.664Z,947.4
2017-04-07T10:59:50.750Z,947.4
2017-04-07T11:00:58.897Z,947.3
2017-04-07T11:02:06.938Z,947.3
2017-04-07T11:03:15.028Z,947.3
2017-04-07T11:04:23.115Z,947.3
2017-04-07T11:05:31.267Z,947.3
2017-04-07T11:06:39.836Z,947.3
2017-04-07T11:07:47.376Z,947.2
2017-04-07T11:08:55.462Z,947.2
2017-04-07T11:10:03.715Z,947.2
2017-04-07T11:11:11.764Z,947.2
2017-04-07T11:12:19.783Z,947.2
2017-04-07T11:13:27.815Z,947.2
2017-04-07T11:14:35.918Z,947.2
2017-04-07T11:15:44.008Z,947.2
2017-04-07T11:16:52.113Z,947.2
2017-04-07T11:18:00.284Z,947.2
2017-04-07T11:19:08.834Z,947.2
2017-04-07T11:20:16.324Z,947.2
2017-04-07T11:21:24.766Z,947.1
2017-04-07T11:22:32.500Z,947.2
2017-04-07T11:23:40.634Z,947.2
2017-04-07T11:24:48.667Z,947.1
2017-04-07T11:25:56.752Z,947.1
2017-04-07T11:27:04.895Z,947.1
2017-04-07T11:28:13.481Z,947.1
2017-04-07T11:29:21.076Z,947.1
2017-04-07T11:30:29.104Z,947.1
2017-04-07T11:31:37.190Z,947.1
2017-04-07T11:32:45.477Z,947.1
2017-04-07T11:33:53.367Z,947.1
2017-04-07T11:35:01.506Z,947.1
2017-04-07T11:36:09.535Z,947.1
2017-04-07T11:37:17.624Z,947.0
2017-04-07T11:38:25.714Z,947.0
2017-04-07T11:39:33.793Z,947.0
2017-04-07T11:40:42.394Z,947.0
2017-04-07T11:41:49.962Z,947.0
2017-04-07T11:42:58.239Z,947.0
2017-04-07T11:44:06.347Z,947.0
2017-04-07T11:45:14.220Z,947.0
2017-04-07T11:46:22.356Z,947.0
2017-04-07T11:47:30.567Z,947.1
2017-04-07T11:48:38.474Z,947.0
2017-04-07T11:49:46.871Z,947.0
2017-04-07T11:50:55.035Z,947.0
2017-04-07T11:52:04.421Z,947.0
2017-04-07T11:53:10.822Z,947.0
2017-04-07T11:54:19.059Z,947.0
2017-04-07T11:55:26.986Z,947.0
2017-04-07T11:56:35.335Z,946.9
2017-04-07T11:57:43.218Z,947.0
2017-04-07T11:58:51.242Z,947.0
2017-04-07T12:00:00.845Z,946.9
2017-04-07T12:01:07.829Z,946.9
2017-04-07T12:02:15.630Z,946.9
2017-04-07T12:03:23.641Z,946.9
2017-04-07T12:04:31.729Z,946.9
2017-04-07T12:05:39.880Z,946.9
2017-04-07T12:06:47.833Z,946.9
2017-04-07T12:07:55.921Z,946.8
2017-04-07T12:09:04.127Z,946.9
2017-04-07T12:10:12.091Z,946.9
2017-04-07T12:11:20.176Z,946.8
2017-04-07T12:12:28.258Z,946.8
2017-04-07T12:13:36.345Z,946.8
2017-04-07T12:14:44.484Z,946.8
2017-04-07T12:15:52.634Z,946.8
2017-04-07T12:17:00.599Z,946.8
2017-04-07T12:18:08.687Z,946.8
2017-04-07T12:19:16.763Z,946.8
2017-04-07T12:20:25.358Z,946.8
2017-04-07T12:21:32.939Z,946.8
2017-04-07T12:22:41.028Z,946.8
2017-04-07T12:23:49.119Z,946.8
2017-04-07T12:24:57.202Z,946.8
2017-04-07T12:26:05.446Z,946.8
2017-04-07T12:27:13.375Z,946.7
2017-04-07T12:28:21.462Z,946.8
2017-04-07T12:29:29.547Z,946.7
2017-04-07T12:30:37.632Z,946.7
2017-04-07T12:31:46.222Z,946.7
2017-04-07T12:32:53.804Z,946.7
2017-04-07T12:34:01.883Z,946.8
2017-04-07T12:35:09.970Z,946.7
2017-04-07T12:36:18.054Z,946.8
2017-04-07T12:37:26.329Z,946.7
2017-04-07T12:38:34.233Z,946.7
2017-04-07T12:39:42.313Z,946.8
2017-04-07T12:40:50.396Z,946.8
2017-04-07T12:41:58.481Z,946.7
2017-04-07T12:43:07.066Z,946.7
2017-04-07T12:44:14.648Z,946.7
2017-04-07T12:45:22.741Z,946.7
2017-04-07T12:46:30.816Z,946.7
2017-04-07T12:47:39.109Z,946.7
2017-04-07T12:48:47.190Z,946.6
2017-04-07T12:49:55.068Z,946.6
2017-04-07T12:51:03.152Z,946.6
2017-04-07T12:52:11.244Z,946.6
2017-04-07T12:53:19.328Z,946.6
2017-04-07T12:54:27.916Z,946.6
2017-04-07T12:55:35.503Z,946.6
2017-04-07T12:56:43.587Z,946.5
2017-04-07T12:57:51.700Z,946.6
2017-04-07T12:58:59.904Z,946.6
2017-04-07T13:00:07.901Z,946.5
2017-04-07T13:01:15.925Z,946.5
2017-04-07T13:02:24.015Z,946.6
2017-04-07T13:03:32.605Z,946.5
2017-04-07T13:04:40.205Z,946.5
2017-04-07T13:05:48.319Z,946.5
2017-04-07T13:06:56.347Z,946.4
2017-04-07T13:08:04.436Z,946.5
2017-04-07T13:09:12.521Z,946.4
2017-04-07T13:10:20.739Z,946.4
2017-04-07T13:11:28.747Z,946.4
2017-04-07T13:12:36.772Z,946.4
2017-04-07T13:13:44.858Z,946.4
2017-04-07T13:14:52.953Z,946.4
2017-04-07T13:16:01.026Z,946.4
2017-04-07T13:17:09.622Z,946.4
2017-04-07T13:18:17.201Z,946.3
2017-04-07T13:19:25.409Z,946.3
2017-04-07T13:20:33.530Z,946.3
2017-04-07T13:21:41.452Z,946.3
2017-04-07T13:22:49.596Z,946.3
2017-04-07T13:23:57.634Z,946.2
2017-04-07T13:25:05.708Z,946.2
2017-04-07T13:26:13.790Z,946.2
2017-04-07T13:27:21.881Z,946.2
2017-04-07T13:28:30.029Z,946.2
2017-04-07T13:29:38.053Z,946.2
2017-04-07T13:30:46.146Z,946.2
2017-04-07T13:31:54.312Z,946.1
2017-04-07T13:33:02.308Z,946.1
2017-04-07T13:34:10.898Z,946.1
2017-04-07T13:35:18.538Z,946.1
2017-04-07T13:36:26.568Z,946.1
2017-04-07T13:37:34.647Z,946.1
2017-04-07T13:38:42.740Z,946.1
2017-04-07T13:39:50.942Z,946.0
2017-04-07T13:40:58.913Z,946.0
2017-04-07T13:42:07.011Z,946.0
2017-04-07T13:43:15.093Z,946.0
2017-04-07T13:44:23.168Z,946.0
2017-04-07T13:45:31.304Z,946.0
2017-04-07T13:46:39.514Z,946.0
2017-04-07T13:47:47.499Z,946.0
2017-04-07T13:48:55.506Z,945.9
2017-04-07T13:50:03.584Z,945.9
2017-04-07T13:51:12.177Z,946.0
2017-04-07T13:52:19.756Z,945.9
2017-04-07T13:53:27.894Z,945.9
2017-04-07T13:54:35.924Z,945.9
2017-04-07T13:55:44.024Z,945.9
2017-04-07T13:56:52.159Z,945.9
2017-04-07T13:58:00.380Z,945.9
2017-04-07T13:59:08.265Z,945.9
2017-04-07T14:00:16.353Z,945.9
2017-04-07T14:01:24.430Z,945.9
2017-04-07T14:02:32.577Z,945.9
2017-04-07T14:03:40.693Z,945.9
2017-04-07T14:04:48.800Z,945.9
2017-04-07T14:05:56.770Z,945.9
2017-04-07T14:07:05.364Z,945.8
2017-04-07T14:08:13.057Z,945.8
2017-04-07T14:09:21.022Z,945.8
2017-04-07T14:10:29.114Z,945.9
2017-04-07T14:11:37.197Z,945.9
2017-04-07T14:12:45.282Z,945.8
2017-04-07T14:13:53.423Z,945.9
2017-04-07T14:15:01.514Z,945.8
2017-04-07T14:16:09.535Z,945.8
2017-04-07T14:17:17.617Z,945.8
2017-04-07T14:18:25.705Z,945.8
2017-04-07T14:19:34.321Z,945.8
2017-04-07T14:20:41.923Z,945.8
2017-04-07T14:21:50.004Z,945.8
2017-04-07T14:22:58.097Z,945.8
2017-04-07T14:24:06.125Z,945.8
2017-04-07T14:25:14.515Z,945.8
2017-04-07T14:26:22.469Z,945.8
2017-04-07T14:27:30.374Z,945.8
2017-04-07T14:28:38.459Z,945.7
2017-04-07T14:29:46.546Z,945.8
2017-04-07T14:30:55.138Z,945.8
2017-04-07T14:32:02.749Z,945.8
2017-04-07T14:33:10.797Z,945.8
2017-04-07T14:34:18.886Z,945.7
2017-04-07T14:35:26.966Z,945.7
2017-04-07T14:36:35.282Z,945.7